Sunday, October 21, 2018, 1:27 PM EDT
Back to Local

KHGR, Hagerstown Regional Airport

Location: Hagerstown, MD, United States Lat: 39.7
Local Time: 1:27 PM EDT (17:27 GMT) Lon: -77.733
Time Zone: US/Eastern Elev: 705 ft

Show me the last for .
Show Decoded

2018-10-21 12:53 METAR KHGR 211653Z 30024G31KT 10SM FEW047 10/M02 A3011 RMK AO2 PK WND 30031/1635
                 SLP209 T01001022 =
2018-10-21 11:53 METAR KHGR 211553Z 31024G31KT 10SM FEW048 09/M02 A3012 RMK AO2 PK WND 30037/1529
                 SLP210 T00941022 =
2018-10-21 10:53 METAR KHGR 211453Z 32012G20KT 10SM OVC045 09/M01 A3013 RMK AO2 PK WND 32031/1359
                 SLP213 T00941011 51026 =
2018-10-21 09:53 METAR KHGR 211353Z 33024G30KT 10SM OVC046 08/M03 A3011 RMK AO2 PK WND 32030/1353
                 SLP208 T00781028 =
2018-10-21 08:53 METAR KHGR 211253Z 33015G24KT 10SM SCT050 07/M02 A3008 RMK AO2 PK WND 32027/1234
                 SLP199 T00721017 =
2018-10-21 07:53 METAR KHGR 211153Z 31012KT 10SM CLR 06/M02 A3005 RMK AO2 SLP186 60000 70003
                 T00561022 10083 20056 53035 =
2018-10-21 06:53 METAR KHGR 211053Z 33011KT 10SM CLR 06/00 A3000 RMK AO2 RAE0954 SLP169 P0000
                 T00610000 =
2018-10-21 05:53 METAR KHGR 210953Z AUTO 33016G26KT 10SM -RA BKN032 BKN038 BKN055 07/01 A2995 RMK
                 AO2 PK WND 34031/0856 RAB41 SLP152 P0000 T00670011 =
2018-10-21 04:53 METAR KHGR 210853Z AUTO 33021G31KT 10SM SCT032 SCT043 OVC060 07/01 A2989 RMK AO2
                 PK WND 32032/0834 SLP131 60000 T00720011 53037 =
2018-10-21 04:30 METAR KHGR 210830Z AUTO 32020G27KT 10SM OVC031 07/02 A2986 RMK AO2 PK WND
                 34027/0828 T00720017 =
2018-10-21 03:53 METAR KHGR 210753Z AUTO 29014G19KT 10SM BKN026 OVC033 07/03 A2982 RMK AO2 PK WND
                 29027/0731 RAB04E15B43E53 SLP109 P0000 T00720028 =
2018-10-21 03:44 METAR KHGR 210744Z AUTO 28015KT 10SM -RA BKN026 OVC033 07/03 A2982 RMK AO2 PK
                 WND 29027/0731 RAB04E15B43 P0000 T00720028 =
2018-10-21 02:53 METAR KHGR 210653Z AUTO 27010G17KT 10SM FEW048 OVC060 08/02 A2980 RMK AO2 SLP100
                 T00830022 =
2018-10-21 01:53 METAR KHGR 210553Z AUTO 28009G21KT 10SM CLR 08/02 A2977 RMK AO2 SLP091 60003
                 T00780022 10150 20078 52010 =
2018-10-21 00:53 METAR KHGR 210453Z AUTO 28009KT 10SM BKN110 08/03 A2977 RMK AO2 RAE02 SLP090
                 P0000 T00830033 401890078 =
2018-10-20 23:53 METAR KHGR 210353Z AUTO VRB05G22KT 9SM -RA OVC042 08/04 A2975 RMK AO2 PK WND
                 32034/0339 RAB01 PRESFR SLP084 P0002 T00830044 =
2018-10-20 22:53 METAR KHGR 210253Z AUTO 25007KT 10SM SCT043 BKN050 OVC060 11/04 A2974 RMK AO2
                 SLP081 60001 T01110044 51025 =
2018-10-20 21:53 METAR KHGR 210153Z 26009KT 10SM SCT110 11/05 A2972 RMK AO2 RAE0059 SLP075 P0000
                 T01060050 =
2018-10-20 20:53 METAR KHGR 210053Z 29017G25KT 9SM -RA FEW040 BKN050 OVC060 10/06 A2972 RMK AO2
                 PK WND 30037/0031 WSHFT 0023 RAB32 SLP073 P0001 T01000061 =
2018-10-20 20:43 METAR KHGR 210043Z 31022G37KT 7SM -RA FEW036 BKN050 OVC065 11/06 A2973 RMK AO2
                 PK WND 30037/0031 WSHFT 0023 LTG DSNT NE RAB32 P0001 T01060061 =
2018-10-20 19:53 METAR KHGR 202353Z 24008KT 10SM OVC100 15/04 A2967 RMK AO2 SLP055 T01500039
                 10183 20150 55000 =
2018-10-20 18:53 METAR KHGR 202253Z 24006KT 10SM OVC095 16/04 A2967 RMK AO2 SLP053 T01560039 =
2018-10-20 17:53 METAR KHGR 202153Z 27009KT 10SM SCT085 17/05 A2966 RMK AO2 SLP052 T01670050 =
2018-10-20 16:53 METAR KHGR 202053Z 27011KT 10SM FEW055 SCT070 BKN085 17/06 A2967 RMK AO2 SLP055
                 T01670061 56021 =
2018-10-20 15:53 METAR KHGR 201953Z 26008KT 10SM BKN085 18/07 A2968 RMK AO2 SLP059 T01780067 =
2018-10-20 14:53 METAR KHGR 201853Z 26012KT 10SM BKN085 17/06 A2971 RMK AO2 SLP068 T01720061 =
2018-10-20 13:53 METAR KHGR 201753Z 28016G26KT 10SM FEW043 SCT070 18/07 A2973 RMK AO2 PK WND
                 29026/1746 SLP076 T01830067 10189 20139 58025 =

Support USWX by starting your Amazon purchase here.